Time;durP1;ratioP1;P1;durP2;ratioP2;P2;SDS_P1;SDS_P2;PMS_P1;PMS_P2;Temp;Humidity;BMP_temperature;BMP_pressure;BME280_temperature;BME280_humidity;BME280_pressure;Samples;Min_cycle;Max_cycle;Signal;HPM_P1;HPM_P2
2024/01/19 00:02:40;;;;;;;28.63;13.10;;;;;;;-2.64;100.00;99768.55;4953672;56;1140676;-76
2024/01/19 00:07:46;;;;;;;28.17;12.85;;;;;;;-2.64;100.00;99773.28;4883292;58;1141141;-76
2024/01/19 00:12:51;;;;;;;36.00;14.37;;;;;;;-2.66;100.00;99785.88;4987379;56;1141232;-76
2024/01/19 00:17:57;;;;;;;27.03;10.80;;;;;;;-2.71;100.00;99791.20;5056901;56;1141090;-77
2024/01/19 00:23:02;;;;;;;27.43;12.10;;;;;;;-2.73;100.00;99785.69;5061683;56;1140505;-79
2024/01/19 00:28:08;;;;;;;26.10;13.43;;;;;;;-2.76;100.00;99775.02;5072918;56;1141274;-79
2024/01/19 00:33:14;;;;;;;35.07;15.63;;;;;;;-2.76;100.00;99784.08;5036360;56;1140976;-79
2024/01/19 00:38:20;;;;;;;42.40;17.33;;;;;;;-2.85;100.00;99793.44;5104421;56;1140740;-79
2024/01/19 00:43:26;;;;;;;44.80;18.80;;;;;;;-2.95;100.00;99804.56;4893499;57;1140658;-78
2024/01/19 00:48:31;;;;;;;32.13;13.97;;;;;;;-3.09;100.00;99816.27;4853094;58;1140926;-77
2024/01/19 00:53:38;;;;;;;38.67;19.42;;;;;;;-3.19;100.00;99814.41;4944969;57;1142028;-77
2024/01/19 00:58:45;;;;;;;43.90;17.95;;;;;;;-3.29;100.00;99831.13;4939387;57;1140831;-78
2024/01/19 01:03:50;;;;;;;31.33;13.98;;;;;;;-3.41;100.00;99845.30;4925532;57;1140833;-81
2024/01/19 01:08:56;;;;;;;39.73;18.73;;;;;;;-3.49;100.00;99858.89;4970270;57;1140791;-80
2024/01/19 01:14:01;;;;;;;38.20;18.63;;;;;;;-3.62;100.00;99868.77;5022384;57;1140655;-80
2024/01/19 01:19:08;;;;;;;25.67;13.67;;;;;;;-3.73;100.00;99887.63;4931840;56;1140976;-79
2024/01/19 01:24:13;;;;;;;42.37;18.47;;;;;;;-3.80;100.00;99891.27;4947915;56;1140603;-77
2024/01/19 01:29:19;;;;;;;49.07;18.47;;;;;;;-3.88;100.00;99885.50;4842292;57;1140757;-78
2024/01/19 01:34:25;;;;;;;42.00;19.37;;;;;;;-3.86;100.00;99888.04;4825936;57;1141431;-76
2024/01/19 01:39:31;;;;;;;44.73;19.83;;;;;;;-3.92;100.00;99889.05;4819677;58;1140711;-78
2024/01/19 01:44:36;;;;;;;48.97;19.43;;;;;;;-3.99;100.00;99891.42;4866891;57;1140686;-74
2024/01/19 01:49:42;;;;;;;49.20;21.10;;;;;;;-4.12;100.00;99893.92;4882841;57;1141356;-78
2024/01/19 01:54:48;;;;;;;36.83;16.90;;;;;;;-4.16;100.00;99890.60;4787964;57;1141232;-77
2024/01/19 01:59:55;;;;;;;43.35;17.37;;;;;;;-4.17;100.00;99890.20;4787965;58;1140701;-80
2024/01/19 02:05:02;;;;;;;43.33;18.47;;;;;;;-4.27;100.00;99896.48;4901561;57;1141220;-79
2024/01/19 02:10:14;;;;;;;58.20;23.53;;;;;;;-4.30;100.00;99909.50;4929134;57;1140876;-78
2024/01/19 02:15:23;;;;;;;41.05;19.52;;;;;;;-4.26;100.00;99914.95;4889561;58;1140736;-77
2024/01/19 02:20:29;;;;;;;55.33;23.40;;;;;;;-4.26;100.00;99914.52;4955418;56;1140950;-77
2024/01/19 02:25:34;;;;;;;42.23;19.67;;;;;;;-4.20;100.00;99922.55;4974159;56;1140949;-75
2024/01/19 02:30:41;;;;;;;51.50;21.63;;;;;;;-4.31;100.00;99929.30;4954597;56;1141242;-78
2024/01/19 02:35:46;;;;;;;38.87;18.80;;;;;;;-4.45;100.00;99945.59;4955521;56;1140777;-75
2024/01/19 02:40:52;;;;;;;44.23;18.47;;;;;;;-4.58;100.00;99940.79;4973117;56;1141154;-77
2024/01/19 02:45:57;;;;;;;42.93;19.20;;;;;;;-4.70;100.00;99958.25;4956236;56;1141060;-75
2024/01/19 02:51:03;;;;;;;67.33;23.00;;;;;;;-4.77;100.00;99958.45;4956128;56;1140820;-78
2024/01/19 02:56:09;;;;;;;81.67;30.07;;;;;;;-4.88;100.00;99953.97;4897778;58;1140853;-77
2024/01/19 03:01:15;;;;;;;59.83;24.03;;;;;;;-4.96;100.00;99965.77;4906813;56;1140790;-74
2024/01/19 03:06:20;;;;;;;60.03;21.57;;;;;;;-5.03;100.00;99957.76;5057489;55;1141099;-74
2024/01/19 03:11:26;;;;;;;31.07;13.70;;;;;;;-5.06;100.00;99971.59;4899544;58;1141012;-76
2024/01/19 03:16:31;;;;;;;50.53;20.57;;;;;;;-5.05;100.00;99982.31;4876447;58;1141198;-78
2024/01/19 03:21:38;;;;;;;84.97;25.68;;;;;;;-5.08;100.00;99982.38;4884962;58;1140836;-75
2024/01/19 03:26:43;;;;;;;62.95;20.62;;;;;;;-5.09;100.00;99987.56;4880623;58;1141003;-75
2024/01/19 03:31:49;;;;;;;50.17;17.85;;;;;;;-5.08;100.00;100000.86;4878415;57;1140882;-73
2024/01/19 03:36:54;;;;;;;48.10;17.57;;;;;;;-5.06;100.00;99999.11;4876978;58;1142711;-78
2024/01/19 03:42:01;;;;;;;41.37;17.80;;;;;;;-5.09;100.00;99992.28;4931662;57;1140800;-76
2024/01/19 03:47:06;;;;;;;81.13;24.43;;;;;;;-5.13;100.00;100000.95;4954192;56;1140802;-74
2024/01/19 03:52:12;;;;;;;36.68;15.13;;;;;;;-5.15;100.00;100009.60;4876341;57;1142624;-73
2024/01/19 03:57:18;;;;;;;43.03;17.57;;;;;;;-5.21;100.00;100005.89;4837464;58;1143077;-73
2024/01/19 04:02:23;;;;;;;49.30;18.03;;;;;;;-5.28;100.00;100010.31;4881042;56;1143080;-77
2024/01/19 04:07:29;;;;;;;34.07;12.47;;;;;;;-5.37;100.00;100018.25;4930163;57;1142896;-77
2024/01/19 04:12:35;;;;;;;42.07;17.60;;;;;;;-5.46;100.00;100027.00;4943900;58;1142699;-76
2024/01/19 04:17:40;;;;;;;39.77;15.90;;;;;;;-5.51;100.00;100030.14;4957307;58;1142924;-78
2024/01/19 04:22:46;;;;;;;43.57;17.77;;;;;;;-5.58;100.00;100036.27;4918183;57;1142922;-75
2024/01/19 04:27:51;;;;;;;75.35;26.62;;;;;;;-5.63;100.00;100041.09;4924715;57;1142868;-76
2024/01/19 04:32:57;;;;;;;34.10;12.93;;;;;;;-5.67;100.00;100038.61;4938396;57;1142884;-77
2024/01/19 04:38:03;;;;;;;53.17;21.47;;;;;;;-5.69;100.00;100035.64;4947296;57;1142815;-76
2024/01/19 04:43:08;;;;;;;59.43;20.10;;;;;;;-5.68;100.00;100051.07;4913909;57;1142963;-78
2024/01/19 04:48:14;;;;;;;46.27;17.80;;;;;;;-5.63;100.00;100056.11;4873148;57;1143040;-79
2024/01/19 04:53:19;;;;;;;41.67;16.83;;;;;;;-5.63;100.00;100062.98;4874451;57;1143035;-68
2024/01/19 04:58:25;;;;;;;45.13;16.77;;;;;;;-5.58;100.00;100063.32;4873027;58;1143310;-72
2024/01/19 05:03:31;;;;;;;43.10;16.37;;;;;;;-5.57;100.00;100069.32;4910598;57;1142800;-71
2024/01/19 05:08:36;;;;;;;40.80;17.75;;;;;;;-5.57;100.00;100072.75;4876581;58;1142650;-70
2024/01/19 05:13:43;;;;;;;43.80;17.47;;;;;;;-5.54;100.00;100080.42;4863042;58;1142713;-71
2024/01/19 05:18:49;;;;;;;56.02;19.60;;;;;;;-5.50;100.00;100079.46;4868112;58;1143063;-70
2024/01/19 05:23:55;;;;;;;55.03;16.43;;;;;;;-5.50;100.00;100076.07;4829644;60;1142733;-72
2024/01/19 05:29:01;;;;;;;47.70;19.73;;;;;;;-5.50;100.00;100072.20;4989736;56;1143306;-70
2024/01/19 05:34:06;;;;;;;35.63;14.97;;;;;;;-5.51;100.00;100064.91;5002871;57;1142904;-70
2024/01/19 05:39:12;;;;;;;46.13;17.17;;;;;;;-5.52;100.00;100067.08;4952339;57;1143153;-69
2024/01/19 05:44:18;;;;;;;42.88;18.00;;;;;;;-5.51;100.00;100074.37;4922148;58;1142927;-70
2024/01/19 05:49:23;;;;;;;54.00;22.90;;;;;;;-5.50;100.00;100083.33;4915148;59;1142749;-67
2024/01/19 05:54:29;;;;;;;46.30;18.03;;;;;;;-5.49;100.00;100078.59;4919188;58;1142730;-71
2024/01/19 05:59:34;;;;;;;29.77;13.63;;;;;;;-5.48;100.00;100089.30;5026893;58;1143110;-70
2024/01/19 06:04:41;;;;;;;32.77;13.03;;;;;;;-5.45;100.00;100089.69;4978858;57;1143023;-67
2024/01/19 06:09:46;;;;;;;44.23;16.87;;;;;;;-5.49;100.00;100087.61;4946232;56;1143798;-70
2024/01/19 06:14:52;;;;;;;32.27;13.50;;;;;;;-5.49;100.00;100094.48;4942790;57;1143110;-68
2024/01/19 06:19:58;;;;;;;25.30;12.23;;;;;;;-5.55;100.00;100090.76;4998383;57;1145755;-70
2024/01/19 06:25:03;;;;;;;38.17;16.20;;;;;;;-5.57;100.00;100093.36;5121648;56;1145223;-71
2024/01/19 06:30:10;;;;;;;44.00;18.07;;;;;;;-5.60;100.00;100106.29;5107334;56;1145301;-73
2024/01/19 06:35:15;;;;;;;29.23;11.93;;;;;;;-5.61;100.00;100124.34;5031858;56;1144551;-69
2024/01/19 06:40:21;;;;;;;43.17;18.40;;;;;;;-5.61;100.00;100138.08;4977199;56;1145535;-72
2024/01/19 06:45:26;;;;;;;49.17;20.67;;;;;;;-5.59;100.00;100135.48;4976129;56;1143149;-77
2024/01/19 06:50:32;;;;;;;47.17;17.92;;;;;;;-5.58;100.00;100141.89;4897483;57;1143054;-76
2024/01/19 06:55:38;;;;;;;36.63;16.12;;;;;;;-5.55;100.00;100135.41;4861237;58;1152560;-77
2024/01/19 07:00:43;;;;;;;34.83;16.47;;;;;;;-5.54;100.00;100135.81;4928859;56;1142923;-76
2024/01/19 07:05:49;;;;;;;44.83;17.37;;;;;;;-5.50;100.00;100136.14;4962209;57;1142709;-77
2024/01/19 07:10:54;;;;;;;39.70;13.30;;;;;;;-5.44;100.00;100149.36;4871707;57;1142639;-78
2024/01/19 07:16:00;;;;;;;33.60;17.00;;;;;;;-5.43;100.00;100145.91;4992488;56;1142893;-77
2024/01/19 07:21:06;;;;;;;22.40;11.50;;;;;;;-5.43;100.00;100147.20;4984068;56;1142937;-77
2024/01/19 07:26:11;;;;;;;21.07;8.40;;;;;;;-5.43;100.00;100149.34;4916759;55;1143399;-77
2024/01/19 07:31:17;;;;;;;28.30;13.70;;;;;;;-5.42;100.00;100139.88;4949398;56;1140700;-77
2024/01/19 07:36:23;;;;;;;26.80;13.40;;;;;;;-5.35;100.00;100141.48;4868322;57;1142804;-77
2024/01/19 07:41:28;;;;;;;27.13;10.97;;;;;;;-5.28;100.00;100135.31;4896796;56;1142921;-75
2024/01/19 07:46:35;;;;;;;25.42;11.56;;;;;;;-5.21;100.00;100133.04;4958959;56;1144944;-75
2024/01/19 07:51:41;;;;;;;34.10;13.50;;;;;;;-5.08;100.00;100147.82;5005388;56;1145952;-76
2024/01/19 07:56:46;;;;;;;26.33;12.75;;;;;;;-4.95;100.00;100160.88;4963775;56;1143091;-75
2024/01/19 08:01:52;;;;;;;23.03;10.27;;;;;;;-4.78;100.00;100157.94;4988640;56;1143072;-75
2024/01/19 08:06:58;;;;;;;21.63;9.60;;;;;;;-4.64;100.00;100156.77;4930485;56;1142977;-76
2024/01/19 08:12:03;;;;;;;25.57;10.90;;;;;;;-4.52;100.00;100158.23;4957910;57;1140807;-75
2024/01/19 08:17:09;;;;;;;29.50;11.27;;;;;;;-4.38;100.00;100153.60;4899329;57;1143137;-75
2024/01/19 08:22:15;;;;;;;25.63;11.07;;;;;;;-4.22;100.00;100161.84;4906069;56;1143044;-75
2024/01/19 08:27:20;;;;;;;25.33;11.43;;;;;;;-4.09;100.00;100173.58;4933284;57;1231766;-75
2024/01/19 08:32:26;;;;;;;27.97;10.90;;;;;;;-3.96;100.00;100183.17;4856625;57;1161435;-75
2024/01/19 08:37:32;;;;;;;28.97;11.47;;;;;;;-3.83;100.00;100195.38;4851774;58;1142870;-75
2024/01/19 08:42:38;;;;;;;13.43;7.80;;;;;;;-3.66;100.00;100198.37;4928475;57;1142918;-75
2024/01/19 08:47:43;;;;;;;26.70;11.23;;;;;;;-3.46;100.00;100216.82;4936274;57;1141551;-76
2024/01/19 08:52:49;;;;;;;34.40;12.17;;;;;;;-3.31;100.00;100220.75;5004774;55;1142613;-76
2024/01/19 08:57:55;;;;;;;26.00;11.33;;;;;;;-3.21;100.00;100208.83;5045344;56;1143311;-75
2024/01/19 09:03:01;;;;;;;20.67;9.60;;;;;;;-3.09;100.00;100206.83;5090049;56;1142651;-75
2024/01/19 09:08:07;;;;;;;32.90;12.77;;;;;;;-2.99;100.00;100225.08;5061393;56;1142593;-75
2024/01/19 09:13:13;;;;;;;20.00;10.67;;;;;;;-2.97;100.00;100227.18;5060607;56;1210696;-76
2024/01/19 09:18:18;;;;;;;25.87;12.20;;;;;;;-2.92;100.00;100227.47;5031383;56;1142813;-76
2024/01/19 09:23:24;;;;;;;35.67;13.13;;;;;;;-2.90;100.00;100241.19;4944583;57;1143373;-76
2024/01/19 09:28:29;;;;;;;486.23;107.10;;;;;;;-2.84;100.00;100235.01;4918718;57;1142837;-76
2024/01/19 09:33:35;;;;;;;40.20;10.30;;;;;;;-2.73;100.00;100229.08;4865866;58;1147298;-76
2024/01/19 09:38:40;;;;;;;55.37;15.50;;;;;;;-2.66;100.00;100231.06;4870976;58;1142661;-75
2024/01/19 09:43:49;;;;;;;47.25;14.68;;;;;;;-2.61;100.00;100248.62;4952272;56;1142614;-76
2024/01/19 09:49:18;;;;;;;20.20;9.17;;;;;;;-2.61;100.00;100249.91;4938538;57;1142590;-76
2024/01/19 09:54:31;;;;;;;19.93;8.30;;;;;;;-2.49;100.00;100249.56;4857056;58;1143544;-76
2024/01/19 09:59:36;;;;;;;22.10;7.95;;;;;;;-2.41;100.00;100255.34;4860761;58;1208112;-76
2024/01/19 10:04:42;;;;;;;20.08;10.55;;;;;;;-2.37;100.00;100260.00;4880381;58;1240293;-76
2024/01/19 10:09:51;;;;;;;24.55;10.82;;;;;;;-2.35;100.00;100255.63;4867562;58;1186674;-75
2024/01/19 10:14:57;;;;;;;16.77;7.73;;;;;;;-2.32;100.00;100252.95;4865012;58;1242997;-76
2024/01/19 10:20:03;;;;;;;13.20;7.87;;;;;;;-2.29;100.00;100264.53;4973216;57;1225084;-76
2024/01/19 10:25:14;;;;;;;42.47;13.47;;;;;;;-2.25;100.00;100276.48;4849962;57;1244873;-75
2024/01/19 10:30:27;;;;;;;26.33;10.53;;;;;;;-2.18;100.00;100269.79;4862727;58;1261623;-76
2024/01/19 10:35:32;;;;;;;;;;;;;;;-2.11;100.00;100262.67;4874888;58;1259900;-76
2024/01/19 10:40:38;;;;;;;31.57;11.87;;;;;;;-2.08;100.00;100279.42;4923624;58;1055203;-76
2024/01/19 10:45:43;;;;;;;14.25;7.60;;;;;;;-1.94;100.00;100288.08;4921817;58;1248430;-75
2024/01/19 10:50:49;;;;;;;17.03;8.17;;;;;;;-1.83;100.00;100289.44;4980964;56;1238000;-76
2024/01/19 10:55:54;;;;;;;23.50;8.47;;;;;;;-1.87;100.00;100296.92;5021423;56;1140841;-76
2024/01/19 11:01:15;;;;;;;21.97;8.70;;;;;;;-1.87;100.00;100296.92;5052408;56;1238112;-75
2024/01/19 11:06:22;;;;;;;13.80;5.67;;;;;;;-1.89;100.00;100308.23;5058039;56;1140780;-75
2024/01/19 11:11:31;;;;;;;20.23;8.18;;;;;;;-1.90;100.00;100311.27;5005265;56;1140940;-75
2024/01/19 11:16:41;;;;;;;17.25;8.53;;;;;;;-1.95;100.00;100310.99;4948096;57;1140731;-76
2024/01/19 11:21:47;;;;;;;15.63;6.85;;;;;;;-1.96;100.00;100336.06;4865342;58;1140828;-75
2024/01/19 11:27:09;;;;;;;26.63;10.63;;;;;;;-1.97;100.00;100334.80;4841235;58;1140771;-76
2024/01/19 11:32:15;;;;;;;28.37;9.73;;;;;;;-1.99;100.00;100340.51;4836031;58;1142784;-77
2024/01/19 11:37:46;;;;;;;12.97;5.70;;;;;;;-1.99;100.00;100340.06;4897677;58;1141096;-75
2024/01/19 11:42:52;;;;;;;21.93;9.47;;;;;;;-1.98;100.00;100338.28;4914225;57;1140901;-76
2024/01/19 11:47:58;;;;;;;24.97;9.57;;;;;;;-1.95;100.00;100340.35;4876365;58;1140874;-76
2024/01/19 11:53:04;;;;;;;17.77;9.10;;;;;;;-1.90;100.00;100346.70;4880111;57;1241668;-76
2024/01/19 11:58:39;;;;;;;29.97;10.87;;;;;;;-1.87;100.00;100351.80;4943141;57;1140615;-76
2024/01/19 12:03:42;;;;;;;18.80;8.07;;;;;;;-1.85;100.00;100365.13;4973582;56;1256564;-75
2024/01/19 12:09:05;;;;;;;25.00;8.10;;;;;;;-1.85;100.00;100363.83;4873046;57;1140729;-75
2024/01/19 12:14:13;;;;;;;17.10;7.70;;;;;;;-1.86;100.00;100362.58;4930821;55;1249566;-76
2024/01/19 12:19:22;;;;;;;7.03;4.67;;;;;;;-1.83;100.00;100362.46;4751795;59;1140989;-75
2024/01/19 12:24:26;;;;;;;11.50;4.97;;;;;;;-1.85;100.00;100365.13;4788263;59;1138538;-75
2024/01/19 12:29:36;;;;;;;11.20;4.87;;;;;;;-1.82;100.00;100348.61;4737634;57;1140896;-76
2024/01/19 12:34:41;;;;;;;10.40;4.28;;;;;;;-1.76;100.00;100356.22;4822125;57;1140944;-76
2024/01/19 12:39:47;;;;;;;14.13;4.53;;;;;;;-1.73;100.00;100357.42;4797044;59;1141147;-76
2024/01/19 12:44:55;;;;;;;16.47;6.53;;;;;;;-1.68;100.00;100356.00;4908759;57;1140619;-77
2024/01/19 12:50:01;;;;;;;19.67;7.07;;;;;;;-1.64;100.00;100371.39;4875146;57;1141073;-77
2024/01/19 12:55:08;;;;;;;11.83;6.20;;;;;;;-1.61;100.00;100367.87;5030158;55;1141045;-76
2024/01/19 13:00:18;;;;;;;9.20;4.90;;;;;;;-1.56;100.00;100385.00;5025592;56;1140649;-76
2024/01/19 13:05:30;;;;;;;14.87;4.80;;;;;;;-1.51;100.00;100394.77;4984448;56;1138455;-75
2024/01/19 13:10:35;;;;;;;11.20;3.98;;;;;;;-1.45;100.00;100399.77;4969531;55;1141208;-76
2024/01/19 13:15:41;;;;;;;24.93;7.27;;;;;;;-1.39;100.00;100406.98;4882243;58;1140816;-77
2024/01/19 13:20:46;;;;;;;26.60;6.37;;;;;;;-1.34;100.00;100409.81;4903307;57;1140627;-76
2024/01/19 13:25:55;;;;;;;13.97;5.13;;;;;;;-1.30;100.00;100424.84;4922665;57;1140800;-76
2024/01/19 13:31:00;;;;;;;9.58;4.40;;;;;;;-1.28;100.00;100427.80;4936838;57;1141078;-76
2024/01/19 13:36:06;;;;;;;7.77;3.70;;;;;;;-1.26;100.00;100440.28;4940881;56;1139451;-76
2024/01/19 13:41:14;;;;;;;12.43;4.90;;;;;;;-1.23;100.00;100448.42;4965622;56;1139922;-77
2024/01/19 13:46:19;;;;;;;10.77;4.10;;;;;;;-1.19;100.00;100453.89;4945050;56;1141278;-76
2024/01/19 13:51:25;;;;;;;11.43;4.80;;;;;;;-1.17;100.00;100463.78;5010347;57;1140602;-76
2024/01/19 13:56:31;;;;;;;9.70;4.17;;;;;;;-1.17;100.00;100462.05;4981700;56;1140554;-76
2024/01/19 14:01:36;;;;;;;15.40;3.03;;;;;;;-1.15;100.00;100488.80;4921545;57;1138375;-76
2024/01/19 14:06:44;;;;;;;10.77;5.07;;;;;;;-1.13;100.00;100490.91;4888702;57;1141093;-76
2024/01/19 14:11:50;;;;;;;7.60;3.30;;;;;;;-1.13;100.00;100505.17;4883122;58;1140628;-75
2024/01/19 14:16:57;;;;;;;10.67;3.67;;;;;;;-1.13;100.00;100505.63;4739670;57;1138921;-77
2024/01/19 14:22:02;;;;;;;11.73;4.13;;;;;;;-1.09;100.00;100524.11;4743765;58;1141948;-76
2024/01/19 14:27:08;;;;;;;10.80;4.17;;;;;;;-1.08;100.00;100531.85;4819419;58;1140590;-74
2024/01/19 14:32:15;;;;;;;10.37;3.70;;;;;;;-1.03;100.00;100532.98;4820631;57;1140568;-71
2024/01/19 14:37:21;;;;;;;7.67;3.43;;;;;;;-1.01;100.00;100553.27;4963931;56;1140751;-81
2024/01/19 14:42:27;;;;;;;9.60;4.23;;;;;;;-1.02;100.00;100562.39;4938777;57;1138814;-74
2024/01/19 14:47:32;;;;;;;8.67;4.17;;;;;;;-1.02;100.00;100571.03;4923456;56;1138847;-73
2024/01/19 14:52:39;;;;;;;11.08;4.33;;;;;;;-1.04;100.00;100577.16;4985014;56;1138953;-75
2024/01/19 14:57:44;;;;;;;19.10;5.10;;;;;;;-1.12;100.00;100575.65;4956785;57;1141007;-77
2024/01/19 15:02:50;;;;;;;20.20;4.62;;;;;;;-1.16;100.00;100571.44;4878752;57;1140469;-77
2024/01/19 15:07:55;;;;;;;9.40;3.80;;;;;;;-1.18;100.00;100589.23;4907003;58;1140579;-73
2024/01/19 15:13:01;;;;;;;10.97;5.23;;;;;;;-1.23;100.00;100584.20;4928336;58;1138477;-72
2024/01/19 15:18:07;;;;;;;11.73;5.67;;;;;;;-1.22;100.00;100592.83;4913699;58;1141573;-80
2024/01/19 15:23:13;;;;;;;14.07;5.50;;;;;;;-1.23;100.00;100600.21;4897150;58;1140632;-74
2024/01/19 15:28:18;;;;;;;12.20;4.63;;;;;;;-1.22;100.00;100605.81;4822892;58;1140923;-74
2024/01/19 15:33:24;;;;;;;5.77;3.73;;;;;;;-1.21;100.00;100620.01;4913797;57;1140820;-74
2024/01/19 15:38:29;;;;;;;15.97;4.00;;;;;;;-1.19;100.00;100626.01;4950614;56;1138630;-74
2024/01/19 15:43:36;;;;;;;13.87;4.33;;;;;;;-1.17;100.00;100629.41;4894172;58;1140958;-72
2024/01/19 15:48:42;;;;;;;24.12;8.05;;;;;;;-1.13;100.00;100634.08;4928706;57;1149452;-74
2024/01/19 15:53:47;;;;;;;13.73;4.23;;;;;;;-1.13;100.00;100636.67;4906970;57;1140719;-76
2024/01/19 15:58:53;;;;;;;14.38;5.17;;;;;;;-1.12;100.00;100631.89;4863507;57;1140755;-75
2024/01/19 16:03:59;;;;;;;313.13;60.90;;;;;;;-1.15;100.00;100647.09;4858086;59;1140845;-79
2024/01/19 16:09:06;;;;;;;66.87;10.83;;;;;;;-1.17;100.00;100651.47;4846855;57;1145130;-76
2024/01/19 16:14:11;;;;;;;9.60;3.73;;;;;;;-1.20;100.00;100661.08;5017135;57;1142822;-81
2024/01/19 16:19:17;;;;;;;14.37;5.67;;;;;;;-1.24;100.00;100656.44;4917705;57;1139382;-78
2024/01/19 16:24:24;;;;;;;30.47;7.93;;;;;;;-1.21;100.00;100669.31;4982651;56;1140668;-77
2024/01/19 16:29:30;;;;;;;169.43;40.05;;;;;;;-1.19;100.00;100674.45;4905100;57;1141287;-76
2024/01/19 16:34:35;;;;;;;48.23;11.30;;;;;;;-1.16;100.00;100684.31;4891316;57;1145057;-80
2024/01/19 16:39:41;;;;;;;41.90;9.07;;;;;;;-1.19;100.00;100683.54;4931386;57;1152944;-76
2024/01/19 16:44:46;;;;;;;38.20;10.34;;;;;;;-1.26;100.00;100691.95;4939966;56;1140885;-77
2024/01/19 16:49:52;;;;;;;38.13;10.03;;;;;;;-1.32;100.00;100688.66;4947188;57;1142893;-73
2024/01/19 16:54:57;;;;;;;29.33;10.23;;;;;;;-1.35;100.00;100699.11;4922245;57;1142990;-79
2024/01/19 17:00:03;;;;;;;37.47;11.00;;;;;;;-1.43;100.00;100693.69;4827926;58;1143020;-75
2024/01/19 17:05:09;;;;;;;19.97;7.70;;;;;;;-1.48;100.00;100695.98;4866899;58;1143313;-75
2024/01/19 17:10:14;;;;;;;35.03;10.43;;;;;;;-1.58;100.00;100703.16;4904906;57;1140889;-75
2024/01/19 17:15:23;;;;;;;46.23;10.43;;;;;;;-1.62;100.00;100711.03;4922923;57;1142695;-73
2024/01/19 17:20:27;;;;;;;33.00;9.70;;;;;;;-1.66;100.00;100711.99;4911989;57;1142696;-75
2024/01/19 17:25:33;;;;;;;18.10;7.97;;;;;;;-1.69;100.00;100709.50;4908159;57;1141109;-75
2024/01/19 17:30:45;;;;;;;28.80;9.06;;;;;;;-1.70;100.00;100710.39;4848623;58;1141106;-76
2024/01/19 17:35:47;;;;;;;27.37;11.28;;;;;;;-1.75;100.00;100707.05;4892263;57;1141120;-75
2024/01/19 17:40:53;;;;;;;34.70;9.93;;;;;;;-1.76;100.00;100708.78;4909980;57;1143127;-74
2024/01/19 17:45:59;;;;;;;22.13;7.80;;;;;;;-1.79;100.00;100699.34;4957881;57;1140982;-75
2024/01/19 17:51:05;;;;;;;24.17;9.23;;;;;;;-1.81;100.00;100708.03;4919487;57;1140746;-74
2024/01/19 17:56:11;;;;;;;21.60;7.13;;;;;;;-1.84;100.00;100715.47;4904868;57;1140868;-76
2024/01/19 18:01:17;;;;;;;21.63;6.47;;;;;;;-1.84;100.00;100716.76;4900573;58;1140624;-75
2024/01/19 18:06:22;;;;;;;30.20;8.90;;;;;;;-1.84;100.00;100712.88;4914367;58;1140587;-74
2024/01/19 18:11:30;;;;;;;53.83;17.53;;;;;;;-1.84;100.00;100723.69;4799280;57;1140933;-74
2024/01/19 18:16:36;;;;;;;29.30;10.58;;;;;;;-1.86;100.00;100733.23;4911494;57;1142867;-75
2024/01/19 18:21:42;;;;;;;30.30;12.10;;;;;;;-1.87;100.00;100733.67;4899195;57;1144095;-75
2024/01/19 18:26:48;;;;;;;26.20;11.38;;;;;;;-1.87;100.00;100746.64;4915602;57;1142672;-76
2024/01/19 18:31:53;;;;;;;29.98;8.25;;;;;;;-1.87;100.00;100753.11;4865808;58;1142794;-74
2024/01/19 18:36:59;;;;;;;30.60;8.20;;;;;;;-1.84;100.00;100759.53;4895395;58;1141112;-74
2024/01/19 18:42:05;;;;;;;21.53;10.17;;;;;;;-1.75;100.00;100761.05;4954556;56;1140687;-75
2024/01/19 18:47:11;;;;;;;19.87;8.90;;;;;;;-1.64;100.00;100771.16;4901391;58;1142703;-74
2024/01/19 18:52:20;;;;;;;23.05;7.05;;;;;;;-1.58;100.00;100771.88;4804915;57;1141028;-74
2024/01/19 18:57:24;;;;;;;22.63;8.83;;;;;;;-1.50;100.00;100768.64;4908664;58;1140899;-73
2024/01/19 19:02:30;;;;;;;19.70;8.00;;;;;;;-1.40;100.00;100774.92;4905434;58;1140557;-74
2024/01/19 19:07:36;;;;;;;17.50;5.78;;;;;;;-1.36;100.00;100783.01;4720194;59;1140685;-73
2024/01/19 19:12:42;;;;;;;18.27;7.17;;;;;;;-1.30;100.00;100779.83;4812410;58;1141076;-76
2024/01/19 19:17:47;;;;;;;23.50;8.70;;;;;;;-1.24;100.00;100793.96;4855213;57;1149609;-75
2024/01/19 19:22:56;;;;;;;38.25;11.55;;;;;;;-1.20;100.00;100781.73;4844458;58;1140969;-74
2024/01/19 19:28:00;;;;;;;14.73;7.07;;;;;;;-1.13;100.00;100780.27;5019659;57;1142762;-74
2024/01/19 19:33:06;;;;;;;19.80;8.97;;;;;;;-1.09;100.00;100785.79;4979405;57;1140637;-74
2024/01/19 19:38:11;;;;;;;18.47;7.17;;;;;;;-1.06;100.00;100786.13;5002817;56;1140566;-74
2024/01/19 19:43:17;;;;;;;22.87;9.13;;;;;;;-1.07;100.00;100790.47;4977321;57;1141168;-75
2024/01/19 19:48:23;;;;;;;18.03;8.27;;;;;;;-1.06;100.00;100797.37;4887726;57;1140805;-74
2024/01/19 19:53:28;;;;;;;18.70;7.50;;;;;;;-1.06;100.00;100803.00;4952182;57;1141219;-74
2024/01/19 19:58:35;;;;;;;27.40;11.08;;;;;;;-1.06;100.00;100798.66;4941982;58;1140814;-73
2024/01/19 20:03:42;;;;;;;15.02;8.00;;;;;;;-1.01;100.00;100802.89;4943393;57;1149984;-76
2024/01/19 20:08:50;;;;;;;23.18;10.43;;;;;;;-1.02;100.00;100811.58;4915325;57;1140976;-75
2024/01/19 20:13:55;;;;;;;27.35;10.55;;;;;;;-1.01;100.00;100817.17;4876013;57;1142933;-75
2024/01/19 20:19:01;;;;;;;22.67;9.83;;;;;;;-0.98;100.00;100827.48;4934287;57;1143106;-75
2024/01/19 20:24:07;;;;;;;25.10;9.40;;;;;;;-0.99;100.00;100828.38;4939705;56;1140842;-75
2024/01/19 20:29:13;;;;;;;21.90;10.33;;;;;;;-1.02;100.00;100824.11;4943926;56;1140604;-75
2024/01/19 20:34:19;;;;;;;20.97;8.15;;;;;;;-1.03;100.00;100822.84;4997759;56;1142660;-75
2024/01/19 20:39:25;;;;;;;21.63;11.40;;;;;;;-1.04;100.00;100834.11;4922766;57;1140515;-75
2024/01/19 20:44:30;;;;;;;24.40;8.47;;;;;;;-1.01;100.00;100841.83;4855261;57;1143084;-75
2024/01/19 20:49:36;;;;;;;22.87;11.57;;;;;;;-1.00;100.00;100834.45;4848623;58;1140566;-75
2024/01/19 20:54:41;;;;;;;24.23;10.40;;;;;;;-0.98;100.00;100837.42;4893789;57;1142748;-74
2024/01/19 20:59:47;;;;;;;22.87;11.28;;;;;;;-0.95;100.00;100835.20;4911667;57;1148602;-76
2024/01/19 21:04:53;;;;;;;14.05;7.03;;;;;;;-0.91;100.00;100841.55;4889520;57;1143126;-74
2024/01/19 21:09:58;;;;;;;24.03;9.73;;;;;;;-0.86;100.00;100845.34;4946336;57;1140710;-74
2024/01/19 21:15:04;;;;;;;15.23;7.53;;;;;;;-0.81;100.00;100851.28;4920262;57;1140739;-74
2024/01/19 21:20:11;;;;;;;22.13;10.80;;;;;;;-0.77;100.00;100840.78;4945646;57;1141037;-74
2024/01/19 21:25:19;;;;;;;23.27;8.93;;;;;;;-0.74;100.00;100846.31;5029711;57;1142918;-74
2024/01/19 21:30:24;;;;;;;27.20;8.80;;;;;;;-0.73;100.00;100851.47;4954729;57;1140691;-74
2024/01/19 21:35:30;;;;;;;17.87;8.10;;;;;;;-0.72;100.00;100854.48;4910813;57;1140782;-74
2024/01/19 21:40:36;;;;;;;24.87;10.85;;;;;;;-0.72;100.00;100860.12;4921671;56;1140806;-74
2024/01/19 21:45:41;;;;;;;26.57;10.27;;;;;;;-0.74;100.00;100862.75;4934240;56;1142834;-73
2024/01/19 21:50:48;;;;;;;26.90;9.30;;;;;;;-0.77;100.00;100868.05;4894181;57;1142965;-74
2024/01/19 21:55:55;;;;;;;33.53;10.78;;;;;;;-0.78;100.00;100867.64;4847922;58;1140873;-74
2024/01/19 22:01:00;;;;;;;83.05;21.70;;;;;;;-0.76;100.00;100882.70;4883483;58;1143224;-74
2024/01/19 22:06:06;;;;;;;47.33;13.17;;;;;;;-0.80;100.00;100869.86;4850354;57;1142945;-74
2024/01/19 22:11:12;;;;;;;14.23;7.77;;;;;;;-0.79;100.00;100880.66;4825665;58;1142975;-74
2024/01/19 22:16:17;;;;;;;31.55;10.55;;;;;;;-0.82;100.00;100876.39;4950041;57;1140701;-74
2024/01/19 22:21:23;;;;;;;22.83;8.20;;;;;;;-0.82;100.00;100874.23;4925184;57;1142820;-74
2024/01/19 22:26:28;;;;;;;22.73;8.63;;;;;;;-0.84;100.00;100885.95;4925962;58;1141886;-74
2024/01/19 22:31:34;;;;;;;48.33;12.47;;;;;;;-0.88;100.00;100886.06;4894546;58;1140842;-74
2024/01/19 22:36:39;;;;;;;64.37;15.83;;;;;;;-0.90;100.00;100876.16;4900597;57;1142930;-74